createdAt,value
2018-09-19T00:00:16.797Z,20.90
2018-09-19T00:02:51.224Z,20.90
2018-09-19T00:05:25.557Z,20.80
2018-09-19T00:07:59.910Z,20.70
2018-09-19T00:10:34.202Z,20.70
2018-09-19T00:13:08.602Z,20.60
2018-09-19T00:15:42.971Z,20.50
2018-09-19T00:18:17.408Z,20.60
2018-09-19T00:20:51.690Z,20.50
2018-09-19T00:23:25.971Z,20.50
2018-09-19T00:26:00.346Z,20.50
2018-09-19T00:28:34.545Z,20.40
2018-09-19T00:31:08.977Z,20.40
2018-09-19T00:33:43.387Z,20.30
2018-09-19T00:36:17.764Z,20.20
2018-09-19T00:38:51.979Z,20.20
2018-09-19T00:41:26.186Z,20.20
2018-09-19T00:44:00.595Z,20.10
2018-09-19T00:46:34.899Z,20.10
2018-09-19T00:49:09.102Z,20.10
2018-09-19T00:51:43.387Z,20.10
2018-09-19T00:54:17.803Z,20.10
2018-09-19T00:56:52.114Z,20.00
2018-09-19T00:59:26.438Z,20.00
2018-09-19T01:02:00.794Z,19.90
2018-09-19T01:04:35.022Z,19.90
2018-09-19T01:07:09.244Z,19.90
2018-09-19T01:09:43.553Z,19.90
2018-09-19T01:12:17.823Z,19.90
2018-09-19T01:14:52.074Z,19.90
2018-09-19T01:17:26.458Z,19.90
2018-09-19T01:20:00.902Z,19.90
2018-09-19T01:22:35.290Z,19.80
2018-09-19T01:25:09.643Z,19.80
2018-09-19T01:27:43.949Z,19.70
2018-09-19T01:30:18.215Z,19.70
2018-09-19T01:32:52.540Z,19.60
2018-09-19T01:35:26.871Z,19.60
2018-09-19T01:38:01.211Z,19.50
2018-09-19T01:40:35.576Z,19.50
2018-09-19T01:43:09.870Z,19.50
2018-09-19T01:45:44.159Z,19.40
2018-09-19T01:48:18.406Z,19.40
2018-09-19T01:50:52.700Z,19.40
2018-09-19T01:53:26.967Z,19.40
2018-09-19T01:56:01.313Z,19.50
2018-09-19T01:58:35.677Z,19.50
2018-09-19T02:01:10.129Z,19.60
2018-09-19T02:03:44.411Z,19.60
2018-09-19T02:06:18.600Z,19.60
2018-09-19T02:08:52.948Z,19.60
2018-09-19T02:11:27.231Z,19.60
2018-09-19T02:14:01.516Z,19.50
2018-09-19T02:16:36.029Z,19.40
2018-09-19T02:19:10.321Z,19.50
2018-09-19T02:21:44.579Z,19.40
2018-09-19T02:24:18.739Z,19.40
2018-09-19T02:26:53.106Z,19.30
2018-09-19T02:29:27.440Z,19.30
2018-09-19T02:32:01.622Z,19.30
2018-09-19T02:34:36.044Z,19.20
2018-09-19T02:37:10.353Z,19.30
2018-09-19T02:39:44.710Z,19.30
2018-09-19T02:42:19.042Z,19.30
2018-09-19T02:44:53.485Z,19.30
2018-09-19T02:47:27.760Z,19.40
2018-09-19T02:50:02.101Z,19.30
2018-09-19T02:52:36.526Z,19.40
2018-09-19T02:55:10.894Z,19.40
2018-09-19T02:57:45.226Z,19.40
2018-09-19T03:00:19.555Z,19.40
2018-09-19T03:02:53.834Z,19.50
2018-09-19T03:05:28.160Z,19.40
2018-09-19T03:08:02.457Z,19.40
2018-09-19T03:10:36.669Z,19.50
2018-09-19T03:13:11.048Z,19.40
2018-09-19T03:15:45.456Z,19.40
2018-09-19T03:18:19.838Z,19.40
2018-09-19T03:20:54.104Z,19.40
2018-09-19T03:23:28.323Z,19.30
2018-09-19T03:26:02.734Z,19.20
2018-09-19T03:28:37.177Z,19.30
2018-09-19T03:31:11.648Z,19.30
2018-09-19T03:33:46.317Z,19.30
2018-09-19T03:36:20.765Z,19.40
2018-09-19T03:38:55.223Z,19.40
2018-09-19T03:41:29.527Z,19.50
2018-09-19T03:44:03.880Z,19.30
2018-09-19T03:46:39.019Z,19.30
2018-09-19T03:49:13.379Z,19.30
2018-09-19T03:51:47.553Z,19.40
2018-09-19T03:54:22.065Z,19.40
2018-09-19T03:56:56.405Z,19.40
2018-09-19T03:59:30.710Z,19.20
2018-09-19T04:02:05.032Z,19.30
2018-09-19T04:04:39.266Z,19.30
2018-09-19T04:07:13.471Z,19.30
2018-09-19T04:09:47.909Z,19.30
2018-09-19T04:12:22.298Z,19.20
2018-09-19T04:14:56.616Z,19.20
2018-09-19T04:17:30.985Z,19.20
2018-09-19T04:20:05.205Z,19.20
2018-09-19T04:22:39.493Z,19.20
2018-09-19T04:25:13.859Z,19.10
2018-09-19T04:27:48.136Z,19.10
2018-09-19T04:30:22.469Z,19.00
2018-09-19T04:32:56.899Z,19.10
2018-09-19T04:35:31.288Z,19.10
2018-09-19T04:38:05.647Z,19.10
2018-09-19T04:40:39.962Z,19.10
2018-09-19T04:43:14.280Z,19.10
2018-09-19T04:45:48.938Z,19.00
2018-09-19T04:48:23.322Z,19.00
2018-09-19T04:50:57.688Z,19.00
2018-09-19T04:53:31.920Z,19.00
2018-09-19T04:56:06.192Z,19.00
2018-09-19T04:58:40.511Z,18.90
2018-09-19T05:01:14.855Z,18.90
2018-09-19T05:03:49.259Z,18.90
2018-09-19T05:06:23.822Z,18.80
2018-09-19T05:08:58.322Z,18.80
2018-09-19T05:11:32.583Z,18.70
2018-09-19T05:14:07.263Z,18.80
2018-09-19T05:16:41.637Z,18.60
2018-09-19T05:19:16.033Z,18.60
2018-09-19T05:21:50.330Z,18.60
2018-09-19T05:24:24.719Z,18.60
2018-09-19T05:26:59.032Z,18.60
2018-09-19T05:29:33.331Z,18.50
2018-09-19T05:32:07.729Z,18.60
2018-09-19T05:34:41.965Z,18.60
2018-09-19T05:37:16.345Z,18.50
2018-09-19T05:39:50.585Z,18.50
2018-09-19T05:42:24.949Z,18.50
2018-09-19T05:44:59.227Z,18.50
2018-09-19T05:47:33.485Z,18.50
2018-09-19T05:50:07.880Z,18.50
2018-09-19T05:52:42.283Z,18.50
2018-09-19T05:55:16.601Z,18.60
2018-09-19T05:57:51.035Z,18.60
2018-09-19T06:00:25.499Z,18.60
2018-09-19T06:02:59.944Z,18.60
2018-09-19T06:05:34.323Z,18.60
2018-09-19T06:08:08.633Z,18.60
2018-09-19T06:10:42.985Z,18.70
2018-09-19T06:13:17.169Z,18.70
2018-09-19T06:15:51.430Z,18.70
2018-09-19T06:18:25.858Z,18.80
2018-09-19T06:21:00.271Z,18.80
2018-09-19T06:23:34.589Z,18.80
2018-09-19T06:26:09.003Z,18.90
2018-09-19T06:28:43.204Z,18.90
2018-09-19T06:31:17.514Z,18.90
2018-09-19T06:33:51.847Z,18.90
2018-09-19T06:36:26.070Z,19.00
2018-09-19T06:39:00.514Z,19.00
2018-09-19T06:41:35.054Z,19.00
2018-09-19T06:44:09.395Z,19.00
2018-09-19T06:46:43.675Z,19.10
2018-09-19T06:49:17.992Z,19.00
2018-09-19T06:51:52.395Z,19.10
2018-09-19T06:54:26.831Z,19.10
2018-09-19T06:57:01.177Z,19.20
2018-09-19T06:59:35.572Z,19.20
2018-09-19T07:02:09.890Z,19.30
2018-09-19T07:04:44.169Z,19.30
2018-09-19T07:07:18.501Z,19.40
2018-09-19T07:09:52.781Z,19.40
2018-09-19T07:12:26.983Z,19.60
2018-09-19T07:15:01.223Z,19.60
2018-09-19T07:17:35.586Z,19.70
2018-09-19T07:20:10.058Z,19.70
2018-09-19T07:22:44.294Z,19.80
2018-09-19T07:25:18.662Z,19.90
2018-09-19T07:27:53.107Z,19.90
2018-09-19T07:30:27.425Z,20.00
2018-09-19T07:33:01.759Z,20.10
2018-09-19T07:35:36.278Z,20.20
2018-09-19T07:38:10.586Z,20.30
2018-09-19T07:40:44.830Z,20.30
2018-09-19T07:43:19.200Z,20.40
2018-09-19T07:45:53.453Z,20.50
2018-09-19T07:48:27.631Z,20.60
2018-09-19T07:51:02.056Z,20.70
2018-09-19T07:53:36.354Z,20.70
2018-09-19T07:56:10.741Z,20.80
2018-09-19T07:58:45.051Z,21.00
2018-09-19T08:01:19.420Z,21.00
2018-09-19T08:03:53.620Z,21.00
2018-09-19T08:06:27.947Z,21.10
2018-09-19T08:09:02.149Z,21.20
2018-09-19T08:11:36.322Z,21.30
2018-09-19T08:14:10.581Z,21.40
2018-09-19T08:16:44.867Z,21.40
2018-09-19T08:19:19.207Z,21.50
2018-09-19T08:21:53.576Z,21.60
2018-09-19T08:24:27.905Z,21.70
2018-09-19T08:27:02.170Z,21.70
2018-09-19T08:29:36.410Z,21.80
2018-09-19T08:32:10.749Z,21.80
2018-09-19T08:34:45.255Z,22.00
2018-09-19T08:37:19.578Z,22.10
2018-09-19T08:39:53.998Z,22.20
2018-09-19T08:42:28.219Z,22.20
2018-09-19T08:45:02.490Z,22.40
2018-09-19T08:47:36.847Z,22.50
2018-09-19T08:50:11.061Z,22.50
2018-09-19T08:52:45.344Z,22.50
2018-09-19T08:55:19.614Z,22.60
2018-09-19T08:57:53.941Z,22.80
2018-09-19T09:00:28.226Z,22.90
2018-09-19T09:03:02.528Z,23.00
2018-09-19T09:05:36.806Z,23.10
2018-09-19T09:08:11.033Z,23.30
2018-09-19T09:10:45.432Z,23.30
2018-09-19T09:13:19.710Z,23.40
2018-09-19T09:15:53.995Z,23.50
2018-09-19T09:18:28.292Z,23.50
2018-09-19T09:21:02.746Z,23.60
2018-09-19T09:23:36.945Z,23.70
2018-09-19T09:26:11.368Z,23.70
2018-09-19T09:28:45.716Z,23.70
2018-09-19T09:31:20.140Z,23.90
2018-09-19T09:33:54.377Z,24.10
2018-09-19T09:36:28.725Z,24.00
2018-09-19T09:39:03.156Z,24.30
2018-09-19T09:41:37.310Z,24.40
2018-09-19T09:44:11.660Z,24.50
2018-09-19T09:46:45.895Z,24.60
2018-09-19T09:49:20.386Z,24.70
2018-09-19T09:51:54.566Z,24.60
2018-09-19T09:54:28.916Z,24.80
2018-09-19T09:57:03.171Z,25.00
2018-09-19T09:59:37.443Z,25.10
2018-09-19T10:02:11.833Z,24.90
2018-09-19T10:04:46.189Z,24.70
2018-09-19T10:07:20.590Z,24.90
2018-09-19T10:09:54.795Z,24.80
2018-09-19T10:12:29.047Z,25.00
2018-09-19T10:15:03.399Z,25.30
2018-09-19T10:17:37.718Z,25.50
2018-09-19T10:20:11.950Z,25.70
2018-09-19T10:22:46.317Z,25.70
2018-09-19T10:25:20.658Z,25.80
2018-09-19T10:27:54.986Z,25.80
2018-09-19T10:30:29.265Z,25.70
2018-09-19T10:33:03.715Z,25.90
2018-09-19T10:35:38.252Z,25.90
2018-09-19T10:38:12.543Z,25.80
2018-09-19T10:40:46.752Z,26.00
2018-09-19T10:43:21.008Z,26.20
2018-09-19T10:45:55.330Z,26.40
2018-09-19T10:48:29.610Z,26.40
2018-09-19T10:51:03.893Z,26.10
2018-09-19T10:53:38.446Z,26.00
2018-09-19T10:56:12.870Z,26.10
2018-09-19T10:58:47.053Z,26.10
2018-09-19T11:01:21.433Z,26.30
2018-09-19T11:03:55.767Z,26.60
2018-09-19T11:06:30.085Z,26.70
2018-09-19T11:09:06.957Z,26.80
2018-09-19T11:11:41.301Z,27.00
2018-09-19T11:14:15.607Z,27.00
2018-09-19T11:16:49.862Z,27.10
2018-09-19T11:19:24.131Z,27.30
2018-09-19T11:21:58.457Z,27.30
2018-09-19T11:24:32.732Z,27.30
2018-09-19T11:27:06.986Z,27.20
2018-09-19T11:29:41.358Z,27.30
2018-09-19T11:32:15.723Z,27.30
2018-09-19T11:34:50.123Z,27.40
2018-09-19T11:37:24.262Z,27.40
2018-09-19T11:39:58.607Z,27.30
2018-09-19T11:42:32.810Z,27.50
2018-09-19T11:45:07.012Z,27.70
2018-09-19T11:47:41.151Z,27.50
2018-09-19T11:50:15.494Z,27.60
2018-09-19T11:52:49.810Z,27.60
2018-09-19T11:55:24.018Z,27.70
2018-09-19T11:57:58.265Z,27.80
2018-09-19T12:00:32.872Z,27.60
2018-09-19T12:03:07.179Z,27.90
2018-09-19T12:05:41.616Z,28.00
2018-09-19T12:08:16.022Z,27.80
2018-09-19T12:10:50.299Z,27.90
2018-09-19T12:13:24.677Z,27.70
2018-09-19T12:15:58.985Z,27.80
2018-09-19T12:18:33.325Z,27.60
2018-09-19T12:21:07.639Z,27.90
2018-09-19T12:23:42.089Z,28.00
2018-09-19T12:26:16.274Z,28.10
2018-09-19T12:28:50.540Z,28.00
2018-09-19T12:31:24.885Z,28.10
2018-09-19T12:33:59.123Z,28.30
2018-09-19T12:36:33.701Z,28.10
2018-09-19T12:39:09.300Z,28.10
2018-09-19T12:41:43.526Z,28.20
2018-09-19T12:44:17.884Z,28.00
2018-09-19T12:46:52.170Z,27.90
2018-09-19T12:49:26.443Z,28.10
2018-09-19T12:52:00.810Z,28.10
2018-09-19T12:54:35.277Z,27.80
2018-09-19T12:57:09.613Z,27.70
2018-09-19T12:59:43.995Z,27.70
2018-09-19T13:02:18.309Z,27.70
2018-09-19T13:04:52.495Z,27.50
2018-09-19T13:07:26.793Z,27.50
2018-09-19T13:10:00.999Z,27.50
2018-09-19T13:12:35.330Z,27.70
2018-09-19T13:15:09.630Z,27.50
2018-09-19T13:17:43.833Z,27.70
2018-09-19T13:20:18.138Z,27.70
2018-09-19T13:22:52.654Z,27.70
2018-09-19T13:25:26.910Z,27.70
2018-09-19T13:28:01.417Z,27.70
2018-09-19T13:30:35.749Z,28.00
2018-09-19T13:33:10.072Z,28.10
2018-09-19T13:35:44.278Z,28.10
2018-09-19T13:38:18.617Z,28.30
2018-09-19T13:40:52.812Z,28.50
2018-09-19T13:43:27.360Z,28.80
2018-09-19T13:46:01.533Z,29.10
2018-09-19T13:48:35.828Z,28.60
2018-09-19T13:51:16.362Z,28.70
2018-09-19T13:53:50.605Z,28.80
2018-09-19T13:56:25.086Z,28.80
2018-09-19T13:58:59.589Z,28.80
2018-09-19T14:01:33.880Z,28.80
2018-09-19T14:04:08.187Z,28.70
2018-09-19T14:06:42.421Z,28.70
2018-09-19T14:09:16.738Z,28.90
2018-09-19T14:11:51.085Z,28.90
2018-09-19T14:14:25.330Z,29.00
2018-09-19T14:16:59.623Z,29.20
2018-09-19T14:19:33.930Z,29.20
2018-09-19T14:22:08.290Z,29.10
2018-09-19T14:24:42.529Z,29.10
2018-09-19T14:27:16.809Z,29.30
2018-09-19T14:29:51.150Z,29.20
2018-09-19T14:32:25.474Z,29.20
2018-09-19T14:34:59.893Z,29.00
2018-09-19T14:37:34.082Z,28.90
2018-09-19T14:40:08.393Z,29.00
2018-09-19T14:42:42.686Z,29.10
2018-09-19T14:45:16.958Z,28.90
2018-09-19T14:47:51.210Z,29.00
2018-09-19T14:50:25.526Z,29.30
2018-09-19T14:52:59.831Z,29.10
2018-09-19T14:55:34.030Z,29.30
2018-09-19T14:58:08.305Z,29.30
2018-09-19T15:00:42.849Z,29.40
2018-09-19T15:03:17.134Z,29.30
2018-09-19T15:05:51.471Z,29.40
2018-09-19T15:08:25.890Z,29.60
2018-09-19T15:11:00.260Z,29.80
2018-09-19T15:13:34.528Z,29.90
2018-09-19T15:16:09.383Z,29.90
2018-09-19T15:18:43.933Z,29.80
2018-09-19T15:21:18.206Z,29.90
2018-09-19T15:23:52.672Z,29.80
2018-09-19T15:26:27.006Z,29.70
2018-09-19T15:29:01.367Z,29.60
2018-09-19T15:31:35.741Z,29.60
2018-09-19T15:34:10.338Z,29.50
2018-09-19T15:36:45.070Z,29.70
2018-09-19T15:39:19.474Z,29.70
2018-09-19T15:41:53.827Z,29.70
2018-09-19T15:44:28.124Z,29.80
2018-09-19T15:47:02.337Z,30.00
2018-09-19T15:49:36.695Z,29.90
2018-09-19T15:52:10.913Z,29.90
2018-09-19T15:54:45.357Z,30.10
2018-09-19T15:57:19.701Z,30.10
2018-09-19T15:59:54.062Z,29.90
2018-09-19T16:02:28.418Z,30.00
2018-09-19T16:05:02.726Z,30.10
2018-09-19T16:07:37.044Z,30.00
2018-09-19T16:10:11.254Z,29.90
2018-09-19T16:12:45.676Z,30.00
2018-09-19T16:15:20.146Z,30.00
2018-09-19T16:17:54.549Z,29.90
2018-09-19T16:20:28.961Z,30.10
2018-09-19T16:23:03.375Z,29.70
2018-09-19T16:25:39.174Z,29.60
2018-09-19T16:28:13.751Z,29.50
2018-09-19T16:30:48.790Z,29.20
2018-09-19T16:33:25.513Z,29.10
2018-09-19T16:36:01.882Z,29.00
2018-09-19T16:38:36.573Z,28.90
2018-09-19T16:41:11.069Z,28.70
2018-09-19T16:43:47.855Z,28.50
2018-09-19T16:46:23.368Z,28.50
2018-09-19T16:48:58.001Z,28.60
2018-09-19T16:51:32.762Z,28.50
2018-09-19T16:54:07.528Z,28.40
2018-09-19T16:56:41.679Z,28.40
2018-09-19T16:59:16.897Z,28.40
2018-09-19T17:01:51.106Z,28.20
2018-09-19T17:04:25.509Z,28.10
2018-09-19T17:06:59.783Z,28.10
2018-09-19T17:09:34.224Z,28.00
2018-09-19T17:12:08.434Z,28.00
2018-09-19T17:14:42.853Z,27.90
2018-09-19T17:17:17.084Z,27.90
2018-09-19T17:19:51.451Z,27.80
2018-09-19T17:22:25.921Z,27.60
2018-09-19T17:25:00.266Z,27.50
2018-09-19T17:27:34.593Z,27.50
2018-09-19T17:30:08.882Z,27.50
2018-09-19T17:32:43.281Z,27.40
2018-09-19T17:35:17.642Z,27.30
2018-09-19T17:37:52.335Z,27.40
2018-09-19T17:40:26.687Z,27.20
2018-09-19T17:43:01.089Z,27.20
2018-09-19T17:45:35.418Z,27.10
2018-09-19T17:48:09.726Z,27.00
2018-09-19T17:50:44.062Z,27.00
2018-09-19T17:53:18.362Z,27.00
2018-09-19T17:55:52.654Z,27.00
2018-09-19T17:58:27.136Z,26.90
2018-09-19T18:01:01.254Z,26.80
2018-09-19T18:03:35.693Z,26.80
2018-09-19T18:06:10.068Z,26.70
2018-09-19T18:08:44.458Z,26.60
2018-09-19T18:11:18.888Z,26.60
2018-09-19T18:13:53.338Z,26.50
2018-09-19T18:16:27.683Z,26.50
2018-09-19T18:19:01.940Z,26.40
2018-09-19T18:21:36.270Z,26.40
2018-09-19T18:24:10.604Z,26.40
2018-09-19T18:26:45.015Z,26.30
2018-09-19T18:29:19.362Z,26.30
2018-09-19T18:31:53.730Z,26.20
2018-09-19T18:34:28.021Z,26.20
2018-09-19T18:37:02.342Z,26.20
2018-09-19T18:39:36.749Z,26.10
2018-09-19T18:42:11.114Z,26.00
2018-09-19T18:44:45.367Z,26.00
2018-09-19T18:47:19.673Z,25.90
2018-09-19T18:49:54.049Z,25.90
2018-09-19T18:52:28.157Z,25.90
2018-09-19T18:55:02.458Z,25.80
2018-09-19T18:57:36.764Z,25.70
2018-09-19T19:00:11.138Z,25.70
2018-09-19T19:02:45.614Z,25.60
2018-09-19T19:05:19.793Z,25.60
2018-09-19T19:07:54.001Z,25.50
2018-09-19T19:10:28.323Z,25.50
2018-09-19T19:13:02.637Z,25.30
2018-09-19T19:15:37.058Z,25.30
2018-09-19T19:18:11.238Z,25.30
2018-09-19T19:20:45.550Z,25.10
2018-09-19T19:23:19.866Z,25.00
2018-09-19T19:25:54.102Z,25.00
2018-09-19T19:28:28.392Z,24.80
2018-09-19T19:31:02.752Z,24.70
2018-09-19T19:33:37.063Z,24.80
2018-09-19T19:36:11.410Z,24.90
2018-09-19T19:38:45.822Z,24.80
2018-09-19T19:41:20.062Z,24.90
2018-09-19T19:43:54.268Z,24.80
2018-09-19T19:46:28.471Z,24.80
2018-09-19T19:49:03.228Z,24.70
2018-09-19T19:51:37.643Z,24.70
2018-09-19T19:54:11.948Z,24.80
2018-09-19T19:56:46.182Z,24.80
2018-09-19T19:59:20.693Z,24.70
2018-09-19T20:01:54.914Z,24.60
2018-09-19T20:04:29.386Z,24.50
2018-09-19T20:07:03.696Z,24.50
2018-09-19T20:09:37.982Z,24.50
2018-09-19T20:12:12.259Z,24.40
2018-09-19T20:14:46.647Z,24.40
2018-09-19T20:17:20.940Z,24.30
2018-09-19T20:19:55.653Z,24.20
2018-09-19T20:22:29.866Z,24.20
2018-09-19T20:25:04.147Z,24.20
2018-09-19T20:27:38.593Z,24.30
2018-09-19T20:30:12.956Z,24.20
2018-09-19T20:32:47.255Z,24.20
2018-09-19T20:35:21.834Z,24.20
2018-09-19T20:37:56.053Z,24.10
2018-09-19T20:40:30.373Z,24.10
2018-09-19T20:43:04.587Z,24.00
2018-09-19T20:45:38.794Z,24.00
2018-09-19T20:48:13.122Z,24.10
2018-09-19T20:50:47.480Z,24.10
2018-09-19T20:53:21.802Z,24.00
2018-09-19T20:55:56.206Z,23.80
2018-09-19T20:58:30.653Z,23.80
2018-09-19T21:01:05.010Z,23.80
2018-09-19T21:03:39.212Z,23.70
2018-09-19T21:06:13.622Z,23.70
2018-09-19T21:08:47.917Z,23.60
2018-09-19T21:11:22.253Z,23.50
2018-09-19T21:13:56.589Z,23.60
2018-09-19T21:16:30.915Z,23.60
2018-09-19T21:19:05.231Z,23.40
2018-09-19T21:21:39.740Z,23.50
2018-09-19T21:24:14.043Z,23.40
2018-09-19T21:26:48.232Z,23.50
2018-09-19T21:29:22.504Z,23.30
2018-09-19T21:31:56.674Z,23.30
2018-09-19T21:34:31.039Z,23.30
2018-09-19T21:37:05.265Z,23.20
2018-09-19T21:39:39.620Z,23.20
2018-09-19T21:42:13.815Z,23.10
2018-09-19T21:44:48.000Z,23.10
2018-09-19T21:47:22.368Z,23.10
2018-09-19T21:49:56.650Z,23.00
2018-09-19T21:52:31.058Z,23.00
2018-09-19T21:55:05.406Z,23.00
2018-09-19T21:57:39.755Z,23.00
2018-09-19T22:00:14.225Z,22.80
2018-09-19T22:02:48.377Z,22.80
2018-09-19T22:05:22.856Z,22.80
2018-09-19T22:07:57.151Z,22.70
2018-09-19T22:10:31.531Z,22.70
2018-09-19T22:13:05.802Z,22.70
2018-09-19T22:15:40.127Z,22.60
2018-09-19T22:18:14.382Z,22.60
2018-09-19T22:20:48.768Z,22.60
2018-09-19T22:23:23.042Z,22.50
2018-09-19T22:25:57.384Z,22.50
2018-09-19T22:28:31.765Z,22.50
2018-09-19T22:31:06.222Z,22.40
2018-09-19T22:33:40.530Z,22.30
2018-09-19T22:36:14.862Z,22.20
2018-09-19T22:38:49.085Z,22.30
2018-09-19T22:41:23.477Z,22.20
2018-09-19T22:43:57.737Z,22.20
2018-09-19T22:46:31.952Z,22.20
2018-09-19T22:49:06.382Z,22.10
2018-09-19T22:51:40.882Z,22.10
2018-09-19T22:54:15.283Z,22.10
2018-09-19T22:56:49.614Z,22.10
2018-09-19T22:59:23.920Z,22.00
2018-09-19T23:01:58.301Z,22.10
2018-09-19T23:04:32.575Z,22.10
2018-09-19T23:07:06.794Z,22.00
2018-09-19T23:09:41.077Z,22.00
2018-09-19T23:12:15.381Z,21.90
2018-09-19T23:14:49.660Z,21.90
2018-09-19T23:17:24.019Z,21.80
2018-09-19T23:19:58.358Z,21.80
2018-09-19T23:22:32.799Z,21.80
2018-09-19T23:25:07.102Z,21.70
2018-09-19T23:27:41.278Z,21.70
2018-09-19T23:30:15.513Z,21.70
2018-09-19T23:32:49.882Z,21.70
2018-09-19T23:35:24.123Z,21.60
2018-09-19T23:37:58.498Z,21.60
2018-09-19T23:40:33.151Z,21.60
2018-09-19T23:43:07.515Z,21.70
2018-09-19T23:45:41.840Z,21.60
2018-09-19T23:48:16.069Z,21.60
2018-09-19T23:50:50.322Z,21.50
2018-09-19T23:53:24.578Z,21.50
2018-09-19T23:55:58.837Z,21.30
2018-09-19T23:58:33.159Z,21.50
